Orlando, FL (32806)

6:16 PM EDT on April 28, 2017 (GMT -0400)
Sodo Bimini | | Change Station

Elev 82 ft 28.51 °N, 81.34 °W | Updated 18 seconds ago

Partly Cloudy
Partly Cloudy
90.9 °F
Feels Like 96 °F
N
7.3
Wind Variable Wind from South

Today
High -- | Low -- °F
--% Chance of Precip.
Yesterday
High -- | Low -- °F
Precip. -- in
Pressure 30.05 in
Visibility 10.0 miles
Clouds Clear
Heat Index 96 °F
Dew Point 70 °F
Humidity 50%
Rainfall 0.00 in
Snow Depth Not available.
6:47 AM 7:58 PM
Waxing Crescent, 9% visible
METAR KORL 282153Z 12012G21KT 10SM CLR 32/19 A3004 RMK AO2 SLP176 T03220194
Pressure 30.05 in
Visibility 10.0 miles
Clouds Clear
Heat Index 96 °F
Dew Point 70 °F
Humidity 50%
Rainfall 0.00 in
Snow Depth Not available.
6:47 AM 7:58 PM
Waxing Crescent, 9% visible
METAR KORL 282153Z 12012G21KT 10SM CLR 32/19 A3004 RMK AO2 SLP176 T03220194

Get Severe Weather Alerts

Thanks for signing up!

Be on the lookout for a verification email in your inbox.

You'll start receiving the daily forecast at 8 AM.

×

10-Day Weather Forecast

Almanac

Astronomy

Apr. 28, 2017 Rise Set
Actual Time
Civil Twilight
Nautical Twilight
Astronomical Twilight
Moon
Length of Visible Light
Length of Day
Tomorrow will be .
, % of the Moon is Illuminated

Today's Extremes

State Highs State Lows

Community

WunderPhotos

WunderBlog® & News

Nearby

Air Quality

  Air Quality AQ Index Pollutant
Not available.

Snow Depth

Station Depth Elevation

Earthquake Activity

City Distance Mag. Time & Date
Minimum magnitude displayed is 2.5.

Coastal Water Temperatures

Place Temperature

Stations

Nearby Weather Stations

Station Location Temp. Windchill Dew Point Humidity Wind Precip. Elev Updated Type
                   

Watches & Warnings

There are currently no watches in effect.